createdAt,value
2023-05-10T00:00:39.471Z,9.01
2023-05-10T00:03:07.548Z,8.94
2023-05-10T00:05:35.627Z,8.88
2023-05-10T00:08:03.668Z,8.82
2023-05-10T00:10:33.212Z,8.74
2023-05-10T00:13:01.515Z,8.65
2023-05-10T00:15:31.445Z,8.66
2023-05-10T00:17:59.717Z,8.62
2023-05-10T00:20:27.795Z,8.59
2023-05-10T00:22:55.868Z,8.58
2023-05-10T00:25:23.994Z,8.61
2023-05-10T00:27:56.239Z,8.61
2023-05-10T00:30:24.480Z,8.63
2023-05-10T00:32:52.824Z,8.64
2023-05-10T00:35:22.513Z,8.63
2023-05-10T00:37:50.665Z,8.61
2023-05-10T00:40:18.976Z,8.56
2023-05-10T00:42:47.326Z,8.52
2023-05-10T00:45:16.926Z,8.49
2023-05-10T00:47:44.915Z,8.50
2023-05-10T00:50:13.010Z,8.57
2023-05-10T00:52:41.125Z,8.72
2023-05-10T00:55:11.102Z,8.87
2023-05-10T00:57:39.209Z,8.99
2023-05-10T01:00:08.746Z,9.07
2023-05-10T01:02:38.395Z,9.19
2023-05-10T01:05:07.415Z,9.29
2023-05-10T01:07:35.488Z,9.36
2023-05-10T01:10:03.853Z,9.40
2023-05-10T01:12:31.920Z,9.46
2023-05-10T01:15:00.292Z,9.47
2023-05-10T01:17:28.560Z,9.46
2023-05-10T01:19:58.069Z,9.51
2023-05-10T01:22:52.183Z,9.53
2023-05-10T01:25:41.326Z,9.66
2023-05-10T01:28:25.207Z,9.92
2023-05-10T01:31:24.142Z,10.08
2023-05-10T01:34:00.803Z,10.15
2023-05-10T01:36:33.587Z,10.24
2023-05-10T01:39:08.293Z,10.30
2023-05-10T01:41:47.356Z,10.44
2023-05-10T01:44:23.198Z,10.48
2023-05-10T01:46:55.922Z,10.47
2023-05-10T01:49:28.725Z,10.52
2023-05-10T01:52:06.049Z,10.55
2023-05-10T01:54:36.468Z,10.52
2023-05-10T01:57:09.826Z,10.53
2023-05-10T01:59:41.951Z,10.57
2023-05-10T02:02:13.117Z,10.57
2023-05-10T02:04:44.259Z,10.48
2023-05-10T02:07:13.764Z,10.43
2023-05-10T02:09:43.473Z,10.39
2023-05-10T02:12:11.727Z,10.38
2023-05-10T02:14:41.992Z,10.37
2023-05-10T02:17:11.669Z,10.43
2023-05-10T02:19:43.826Z,10.37
2023-05-10T02:22:12.530Z,10.28
2023-05-10T02:24:41.698Z,10.27
2023-05-10T02:27:12.230Z,10.19
2023-05-10T02:29:41.156Z,10.14
2023-05-10T02:32:12.015Z,10.06
2023-05-10T02:34:43.141Z,10.03
2023-05-10T02:37:12.113Z,10.12
2023-05-10T02:39:44.772Z,10.08
2023-05-10T02:42:18.028Z,9.96
2023-05-10T02:44:49.901Z,9.86
2023-05-10T02:47:20.684Z,9.87
2023-05-10T02:49:50.602Z,9.88
2023-05-10T02:52:24.245Z,9.82
2023-05-10T02:54:56.755Z,9.72
2023-05-10T02:57:31.214Z,9.66
2023-05-10T02:59:59.423Z,9.61
2023-05-10T03:02:27.761Z,9.53
2023-05-10T03:04:57.222Z,9.64
2023-05-10T03:07:25.840Z,9.71
2023-05-10T03:09:54.595Z,9.72
2023-05-10T03:12:32.411Z,9.67
2023-05-10T03:15:08.070Z,9.66
2023-05-10T03:17:43.343Z,9.63
2023-05-10T03:20:15.750Z,9.62
2023-05-10T03:22:49.615Z,9.52
2023-05-10T03:25:19.540Z,9.44
2023-05-10T03:27:48.840Z,9.34
2023-05-10T03:30:18.147Z,9.37
2023-05-10T03:32:46.520Z,9.32
2023-05-10T03:35:16.291Z,9.26
2023-05-10T03:37:44.281Z,9.15
2023-05-10T03:40:12.838Z,9.06
2023-05-10T03:42:43.215Z,8.96
2023-05-10T03:45:12.147Z,8.88
2023-05-10T03:47:40.251Z,8.86
2023-05-10T03:50:09.570Z,8.82
2023-05-10T03:52:40.036Z,8.81
2023-05-10T03:55:08.934Z,8.76
2023-05-10T03:57:37.067Z,8.78
2023-05-10T04:00:05.560Z,8.77
2023-05-10T04:02:33.664Z,8.77
2023-05-10T04:05:01.740Z,8.71
2023-05-10T04:07:30.330Z,8.65
2023-05-10T04:09:59.910Z,8.65
2023-05-10T04:12:28.146Z,8.67
2023-05-10T04:14:56.350Z,8.68
2023-05-10T04:17:24.776Z,8.67
2023-05-10T04:19:55.866Z,8.69
2023-05-10T04:22:24.040Z,8.70
2023-05-10T04:24:52.360Z,8.70
2023-05-10T04:27:22.014Z,8.72
2023-05-10T04:29:51.209Z,8.85
2023-05-10T04:32:20.141Z,8.96
2023-05-10T04:34:48.291Z,9.12
2023-05-10T04:37:16.403Z,9.25
2023-05-10T04:39:44.423Z,9.37
2023-05-10T04:42:12.821Z,9.60
2023-05-10T04:44:42.267Z,9.72
2023-05-10T04:47:12.581Z,9.92
2023-05-10T04:49:40.818Z,10.01
2023-05-10T04:52:08.855Z,10.11
2023-05-10T04:54:36.921Z,10.17
2023-05-10T04:57:05.403Z,10.22
2023-05-10T04:59:38.331Z,10.25
2023-05-10T05:02:07.932Z,10.24
2023-05-10T05:04:36.036Z,10.19
2023-05-10T05:07:04.121Z,10.14
2023-05-10T05:09:32.961Z,10.11
2023-05-10T05:12:01.124Z,10.06
2023-05-10T05:14:29.212Z,10.03
2023-05-10T05:16:57.534Z,10.06
2023-05-10T05:19:26.924Z,10.03
2023-05-10T05:21:54.966Z,10.04
2023-05-10T05:24:22.969Z,10.06
2023-05-10T05:26:50.988Z,10.14
2023-05-10T05:29:18.951Z,10.21
2023-05-10T05:31:46.925Z,10.27
2023-05-10T05:34:14.961Z,10.32
2023-05-10T05:36:44.537Z,10.38
2023-05-10T05:39:12.627Z,10.51
2023-05-10T05:41:40.616Z,10.68
2023-05-10T05:44:08.621Z,10.89
2023-05-10T05:46:36.689Z,10.99
2023-05-10T05:49:04.647Z,11.11
2023-05-10T05:51:33.251Z,11.22
2023-05-10T05:54:02.750Z,11.41
2023-05-10T05:56:30.984Z,11.57
2023-05-10T05:58:58.963Z,11.80
2023-05-10T06:01:26.829Z,12.11
2023-05-10T06:03:54.838Z,12.29
2023-05-10T06:06:22.907Z,12.45
2023-05-10T06:08:50.958Z,12.72
2023-05-10T06:11:21.516Z,12.83
2023-05-10T06:13:49.630Z,12.99
2023-05-10T06:16:17.808Z,13.19
2023-05-10T06:18:45.846Z,13.37
2023-05-10T06:21:13.864Z,13.57
2023-05-10T06:23:41.929Z,13.63
2023-05-10T06:26:10.191Z,13.61
2023-05-10T06:28:40.171Z,13.66
2023-05-10T06:31:08.587Z,13.82
2023-05-10T06:33:36.726Z,14.05
2023-05-10T06:36:05.232Z,14.19
2023-05-10T06:38:33.226Z,14.29
2023-05-10T06:41:01.689Z,14.41
2023-05-10T06:43:30.720Z,14.52
2023-05-10T06:46:00.126Z,14.54
2023-05-10T06:48:28.234Z,14.25
2023-05-10T06:50:56.234Z,14.33
2023-05-10T06:53:24.289Z,14.53
2023-05-10T06:55:52.942Z,14.74
2023-05-10T06:58:21.248Z,14.91
2023-05-10T07:00:49.298Z,15.00
2023-05-10T07:03:18.923Z,14.98
2023-05-10T07:05:47.722Z,14.87
2023-05-10T07:08:15.874Z,14.93
2023-05-10T07:10:43.932Z,15.14
2023-05-10T07:13:12.109Z,15.25
2023-05-10T07:15:40.272Z,15.15
2023-05-10T07:18:08.780Z,15.29
2023-05-10T07:20:38.255Z,15.42
2023-05-10T07:23:06.288Z,15.53
2023-05-10T07:25:34.388Z,15.66
2023-05-10T07:28:02.556Z,15.74
2023-05-10T07:30:30.760Z,15.84
2023-05-10T07:32:58.751Z,15.82
2023-05-10T07:35:26.729Z,15.78
2023-05-10T07:37:56.172Z,15.70
2023-05-10T07:40:24.381Z,15.67
2023-05-10T07:42:52.468Z,15.67
2023-05-10T07:45:20.632Z,15.81
2023-05-10T07:47:48.696Z,15.98
2023-05-10T07:50:16.848Z,16.15
2023-05-10T07:52:46.593Z,16.34
2023-05-10T07:55:16.877Z,16.44
2023-05-10T07:57:45.440Z,16.58
2023-05-10T08:00:18.960Z,16.60
2023-05-10T08:02:47.083Z,16.70
2023-05-10T08:05:15.719Z,16.72
2023-05-10T08:07:44.043Z,16.76
2023-05-10T08:10:13.166Z,16.85
2023-05-10T08:12:42.649Z,16.83
2023-05-10T08:15:12.201Z,16.70
2023-05-10T08:17:40.493Z,16.77
2023-05-10T08:20:09.697Z,16.70
2023-05-10T08:22:38.324Z,16.81
2023-05-10T08:25:07.778Z,16.89
2023-05-10T08:27:35.894Z,17.05
2023-05-10T08:30:05.846Z,17.19
2023-05-10T08:32:34.034Z,17.27
2023-05-10T08:35:02.014Z,17.21
2023-05-10T08:37:33.258Z,17.05
2023-05-10T08:40:01.318Z,17.08
2023-05-10T08:42:32.869Z,17.13
2023-05-10T08:45:01.773Z,17.31
2023-05-10T08:47:31.762Z,17.47
2023-05-10T08:50:00.988Z,17.58
2023-05-10T08:52:30.394Z,17.60
2023-05-10T08:54:58.797Z,17.55
2023-05-10T08:57:29.162Z,17.81
2023-05-10T08:59:57.315Z,18.11
2023-05-10T09:02:25.940Z,18.31
2023-05-10T09:04:55.707Z,18.21
2023-05-10T09:07:23.870Z,18.28
2023-05-10T09:09:52.472Z,18.49
2023-05-10T09:12:20.581Z,18.60
2023-05-10T09:14:49.104Z,18.80
2023-05-10T09:17:17.168Z,19.01
2023-05-10T09:19:45.188Z,19.19
2023-05-10T09:22:14.711Z,19.37
2023-05-10T09:24:46.362Z,19.39
2023-05-10T09:27:14.444Z,19.47
2023-05-10T09:29:43.703Z,19.63
2023-05-10T09:32:13.886Z,19.79
2023-05-10T09:34:43.282Z,20.07
2023-05-10T09:37:11.676Z,20.36
2023-05-10T09:39:42.326Z,20.67
2023-05-10T09:42:11.786Z,20.92
2023-05-10T09:44:41.923Z,21.12
2023-05-10T09:47:10.316Z,21.41
2023-05-10T09:49:38.577Z,21.75
2023-05-10T09:52:07.979Z,22.03
2023-05-10T09:54:37.080Z,22.32
2023-05-10T09:57:06.994Z,22.39
2023-05-10T09:59:36.270Z,22.75
2023-05-10T10:02:05.162Z,23.13
2023-05-10T10:04:33.844Z,23.51
2023-05-10T10:07:03.776Z,23.75
2023-05-10T10:09:31.842Z,23.79
2023-05-10T10:12:00.529Z,23.89
2023-05-10T10:14:30.529Z,24.03
2023-05-10T10:17:06.488Z,24.16
2023-05-10T10:19:36.565Z,24.32
2023-05-10T10:22:05.265Z,24.45
2023-05-10T10:24:33.430Z,24.49
2023-05-10T10:27:10.044Z,24.53
2023-05-10T10:29:51.160Z,24.57
2023-05-10T10:32:28.232Z,24.48
2023-05-10T10:34:57.735Z,24.51
2023-05-10T10:37:43.295Z,24.63
2023-05-10T10:40:31.906Z,24.89
2023-05-10T10:43:24.251Z,25.12
2023-05-10T10:46:15.640Z,25.30
2023-05-10T10:48:49.111Z,25.45
2023-05-10T10:51:17.215Z,25.60
2023-05-10T10:53:45.806Z,25.46
2023-05-10T10:56:16.312Z,25.30
2023-05-10T10:58:54.760Z,25.49
2023-05-10T11:01:24.497Z,25.38
2023-05-10T11:04:21.494Z,24.95
2023-05-10T11:06:49.688Z,24.65
2023-05-10T11:09:18.526Z,24.62
2023-05-10T11:11:53.057Z,24.42
2023-05-10T11:14:23.547Z,24.38
2023-05-10T11:16:53.906Z,24.45
2023-05-10T11:19:21.983Z,24.43
2023-05-10T11:21:51.275Z,24.46
2023-05-10T11:24:21.235Z,24.52
2023-05-10T11:26:52.434Z,24.58
2023-05-10T11:29:21.141Z,24.57
2023-05-10T11:31:50.247Z,24.56
2023-05-10T11:34:31.281Z,24.55
2023-05-10T11:37:00.190Z,24.61
2023-05-10T11:39:29.678Z,24.76
2023-05-10T11:41:59.061Z,25.03
2023-05-10T11:44:31.621Z,25.25
2023-05-10T11:47:01.177Z,25.46
2023-05-10T11:49:30.752Z,25.65
2023-05-10T11:52:06.568Z,25.83
2023-05-10T11:54:35.898Z,26.06
2023-05-10T11:57:04.583Z,26.28
2023-05-10T11:59:32.924Z,26.36
2023-05-10T12:02:04.278Z,26.38
2023-05-10T12:04:34.170Z,26.46
2023-05-10T12:07:02.323Z,26.53
2023-05-10T12:09:40.079Z,26.57
2023-05-10T12:12:11.772Z,26.47
2023-05-10T12:14:39.932Z,26.41
2023-05-10T12:17:08.056Z,26.29
2023-05-10T12:19:44.916Z,25.82
2023-05-10T12:22:13.079Z,25.48
2023-05-10T12:24:41.070Z,25.25
2023-05-10T12:27:10.863Z,25.19
2023-05-10T12:29:42.229Z,25.15
2023-05-10T12:32:11.148Z,25.22
2023-05-10T12:34:39.614Z,25.29
2023-05-10T12:37:09.179Z,25.31
2023-05-10T12:39:42.388Z,25.31
2023-05-10T12:42:10.646Z,25.28
2023-05-10T12:44:38.792Z,25.28
2023-05-10T12:47:06.986Z,25.29
2023-05-10T12:49:35.254Z,25.30
2023-05-10T12:52:03.346Z,25.26
2023-05-10T12:54:32.752Z,25.26
2023-05-10T12:57:00.713Z,25.22
2023-05-10T12:59:28.864Z,25.19
2023-05-10T13:01:56.910Z,25.10
2023-05-10T13:04:24.944Z,25.07
2023-05-10T13:06:53.104Z,25.07
2023-05-10T13:09:21.475Z,25.12
2023-05-10T13:11:51.363Z,25.17
2023-05-10T13:14:21.364Z,25.50
2023-05-10T13:16:49.627Z,26.26
2023-05-10T13:19:18.826Z,26.90
2023-05-10T13:21:46.998Z,27.34
2023-05-10T13:24:15.438Z,27.98
2023-05-10T13:26:43.674Z,28.43
2023-05-10T13:29:12.997Z,28.52
2023-05-10T13:31:41.137Z,28.61
2023-05-10T13:34:09.241Z,28.69
2023-05-10T13:36:37.216Z,28.87
2023-05-10T13:39:06.399Z,29.13
2023-05-10T13:41:35.039Z,29.52
2023-05-10T13:44:03.250Z,30.11
2023-05-10T13:46:32.797Z,30.89
2023-05-10T13:49:00.844Z,31.40
2023-05-10T13:51:28.891Z,31.71
2023-05-10T13:53:56.909Z,32.07
2023-05-10T13:56:24.907Z,32.53
2023-05-10T13:58:53.232Z,33.89
2023-05-10T14:01:21.277Z,36.75
2023-05-10T14:03:50.992Z,39.97
2023-05-10T14:06:19.446Z,42.75
2023-05-10T14:08:47.803Z,45.03
2023-05-10T14:11:16.389Z,46.52
2023-05-10T14:13:44.356Z,47.37
2023-05-10T14:16:12.643Z,48.34
2023-05-10T14:18:40.685Z,49.32
2023-05-10T14:21:10.207Z,50.18
2023-05-10T14:23:38.145Z,50.15
2023-05-10T14:26:06.446Z,50.02
2023-05-10T14:28:34.481Z,50.20
2023-05-10T14:31:02.582Z,50.08
2023-05-10T14:33:30.456Z,48.63
2023-05-10T14:35:58.746Z,46.95
2023-05-10T14:38:28.429Z,44.41
2023-05-10T14:40:56.473Z,41.76
2023-05-10T14:43:24.638Z,39.51
2023-05-10T14:45:52.764Z,37.62
2023-05-10T14:48:22.222Z,35.96
2023-05-10T14:50:50.689Z,35.40
2023-05-10T14:53:19.152Z,35.57
2023-05-10T14:55:48.558Z,34.68
2023-05-10T14:58:16.668Z,33.58
2023-05-10T15:00:44.723Z,32.49
2023-05-10T15:03:13.147Z,31.44
2023-05-10T15:05:41.646Z,30.55
2023-05-10T15:08:10.473Z,29.78
2023-05-10T15:10:39.582Z,29.17
2023-05-10T15:13:09.014Z,28.64
2023-05-10T15:15:37.124Z,28.25
2023-05-10T15:18:05.601Z,27.92
2023-05-10T15:20:33.686Z,27.53
2023-05-10T15:23:01.793Z,27.17
2023-05-10T15:25:29.922Z,26.85
2023-05-10T15:27:57.942Z,26.52
2023-05-10T15:30:27.489Z,26.28
2023-05-10T15:32:55.576Z,26.06
2023-05-10T15:35:23.649Z,25.91
2023-05-10T15:37:51.646Z,25.82
2023-05-10T15:40:19.746Z,25.75
2023-05-10T15:42:47.774Z,25.67
2023-05-10T15:45:16.637Z,25.63
2023-05-10T15:47:46.463Z,25.58
2023-05-10T15:50:14.513Z,25.54
2023-05-10T15:52:42.866Z,25.58
2023-05-10T15:55:13.820Z,25.67
2023-05-10T15:57:42.525Z,25.72
2023-05-10T16:00:12.210Z,25.69
2023-05-10T16:02:40.873Z,25.59
2023-05-10T16:05:11.270Z,25.60
2023-05-10T16:07:40.245Z,25.52
2023-05-10T16:10:10.623Z,25.33
2023-05-10T16:12:39.022Z,25.21
2023-05-10T16:15:08.220Z,25.08
2023-05-10T16:17:36.403Z,24.99
2023-05-10T16:20:04.695Z,24.77
2023-05-10T16:22:34.370Z,24.53
2023-05-10T16:25:02.460Z,24.27
2023-05-10T16:27:33.470Z,24.06
2023-05-10T16:30:01.707Z,23.86
2023-05-10T16:32:29.788Z,23.66
2023-05-10T16:35:00.036Z,23.49
2023-05-10T16:37:29.361Z,23.34
2023-05-10T16:39:58.775Z,23.18
2023-05-10T16:42:26.857Z,22.99
2023-05-10T16:44:55.482Z,22.77
2023-05-10T16:47:26.651Z,22.60
2023-05-10T16:49:54.824Z,22.42
2023-05-10T16:52:23.808Z,22.22
2023-05-10T16:54:51.963Z,22.00
2023-05-10T16:57:21.431Z,21.80
2023-05-10T16:59:49.480Z,21.56
2023-05-10T17:02:17.469Z,21.34
2023-05-10T17:04:45.525Z,21.10
2023-05-10T17:07:14.225Z,20.85
2023-05-10T17:09:43.297Z,20.63
2023-05-10T17:12:11.400Z,20.39
2023-05-10T17:14:43.106Z,20.14
2023-05-10T17:17:11.388Z,19.87
2023-05-10T17:19:39.948Z,19.60
2023-05-10T17:22:07.849Z,19.32
2023-05-10T17:24:35.912Z,19.01
2023-05-10T17:27:04.526Z,18.74
2023-05-10T17:29:32.605Z,18.49
2023-05-10T17:32:02.291Z,18.24
2023-05-10T17:34:30.357Z,18.02
2023-05-10T17:36:58.795Z,17.80
2023-05-10T17:39:26.790Z,17.61
2023-05-10T17:41:54.837Z,17.45
2023-05-10T17:44:23.008Z,17.30
2023-05-10T17:46:51.056Z,17.16
2023-05-10T17:49:20.463Z,17.01
2023-05-10T17:51:49.121Z,16.82
2023-05-10T17:54:17.281Z,16.67
2023-05-10T17:56:45.533Z,16.49
2023-05-10T17:59:13.571Z,16.29
2023-05-10T18:01:41.922Z,16.09
2023-05-10T18:04:10.191Z,15.85
2023-05-10T18:06:39.754Z,15.68
2023-05-10T18:09:08.441Z,15.50
2023-05-10T18:11:38.086Z,15.34
2023-05-10T18:14:05.995Z,15.24
2023-05-10T18:16:34.167Z,15.14
2023-05-10T18:19:02.349Z,15.02
2023-05-10T18:21:31.428Z,14.90
2023-05-10T18:24:01.806Z,14.80
2023-05-10T18:26:29.970Z,14.72
2023-05-10T18:28:59.391Z,14.60
2023-05-10T18:31:29.412Z,14.51
2023-05-10T18:33:58.044Z,14.46
2023-05-10T18:36:26.384Z,14.42
2023-05-10T18:38:54.996Z,14.37
2023-05-10T18:41:27.119Z,14.30
2023-05-10T18:43:55.581Z,14.22
2023-05-10T18:46:24.227Z,14.07
2023-05-10T18:48:53.122Z,13.93
2023-05-10T18:51:22.332Z,13.86
2023-05-10T18:53:52.417Z,13.72
2023-05-10T18:56:22.131Z,13.60
2023-05-10T18:58:51.696Z,13.49
2023-05-10T19:01:20.208Z,13.41
2023-05-10T19:03:48.697Z,13.35
2023-05-10T19:06:16.781Z,13.33
2023-05-10T19:08:47.233Z,13.31
2023-05-10T19:11:15.723Z,13.32
2023-05-10T19:13:45.148Z,13.28
2023-05-10T19:16:16.584Z,13.24
2023-05-10T19:18:45.121Z,13.19
2023-05-10T19:21:13.396Z,13.10
2023-05-10T19:23:42.043Z,12.91
2023-05-10T19:26:13.200Z,12.80
2023-05-10T19:28:41.311Z,12.73
2023-05-10T19:31:09.501Z,12.67
2023-05-10T19:33:39.043Z,12.61
2023-05-10T19:36:09.170Z,12.55
2023-05-10T19:38:38.278Z,12.43
2023-05-10T19:41:06.357Z,12.35
2023-05-10T19:43:35.089Z,12.27
2023-05-10T19:46:04.393Z,12.20
2023-05-10T19:48:32.835Z,12.12
2023-05-10T19:51:03.548Z,12.02
2023-05-10T19:53:31.730Z,11.94
2023-05-10T19:56:04.203Z,11.86
2023-05-10T19:58:32.373Z,11.86
2023-05-10T20:01:00.556Z,11.81
2023-05-10T20:03:29.141Z,11.77
2023-05-10T20:05:57.232Z,11.73
2023-05-10T20:08:26.854Z,11.69
2023-05-10T20:10:54.798Z,11.66
2023-05-10T20:13:22.953Z,11.63
2023-05-10T20:15:50.959Z,11.62
2023-05-10T20:18:18.914Z,11.60
2023-05-10T20:20:46.935Z,11.61
2023-05-10T20:23:15.098Z,11.67
2023-05-10T20:25:44.622Z,11.69
2023-05-10T20:28:13.208Z,11.76
2023-05-10T20:30:41.232Z,11.80
2023-05-10T20:33:09.573Z,11.81
2023-05-10T20:35:37.692Z,11.78
2023-05-10T20:38:05.683Z,11.76
2023-05-10T20:40:33.867Z,11.75
2023-05-10T20:43:03.524Z,11.71
2023-05-10T20:45:31.496Z,11.68
2023-05-10T20:47:59.605Z,11.61
2023-05-10T20:50:27.706Z,11.58
2023-05-10T20:52:55.724Z,11.53
2023-05-10T20:55:23.868Z,11.49
2023-05-10T20:57:51.800Z,11.40
2023-05-10T21:00:21.974Z,11.29
2023-05-10T21:02:50.089Z,11.17
2023-05-10T21:05:18.909Z,11.06
2023-05-10T21:07:46.913Z,10.95
2023-05-10T21:10:15.180Z,10.85
2023-05-10T21:12:43.257Z,10.73
2023-05-10T21:15:12.196Z,10.60
2023-05-10T21:17:41.565Z,10.51
2023-05-10T21:20:10.580Z,10.47
2023-05-10T21:22:38.531Z,10.43
2023-05-10T21:25:07.518Z,10.37
2023-05-10T21:27:35.524Z,10.30
2023-05-10T21:30:03.587Z,10.22
2023-05-10T21:32:31.670Z,10.15
2023-05-10T21:35:01.218Z,10.06
2023-05-10T21:37:29.158Z,9.99
2023-05-10T21:39:57.414Z,9.90
2023-05-10T21:42:25.344Z,9.84
2023-05-10T21:44:53.779Z,9.78
2023-05-10T21:47:21.766Z,9.71
2023-05-10T21:49:50.538Z,9.61
2023-05-10T21:52:20.265Z,9.53
2023-05-10T21:54:48.624Z,9.51
2023-05-10T21:57:16.787Z,9.50
2023-05-10T21:59:44.939Z,9.51
2023-05-10T22:02:13.004Z,9.50
2023-05-10T22:04:41.119Z,9.47
2023-05-10T22:07:09.065Z,9.44
2023-05-10T22:09:40.637Z,9.41
2023-05-10T22:12:08.732Z,9.37
2023-05-10T22:14:36.721Z,9.31
2023-05-10T22:17:04.907Z,9.27
2023-05-10T22:19:32.864Z,9.22
2023-05-10T22:22:00.927Z,9.19
2023-05-10T22:24:28.977Z,9.15
2023-05-10T22:26:58.272Z,9.11
2023-05-10T22:29:26.314Z,9.08
2023-05-10T22:31:54.468Z,9.06
2023-05-10T22:34:22.456Z,9.03
2023-05-10T22:36:50.785Z,8.98
2023-05-10T22:39:18.975Z,8.93
2023-05-10T22:41:46.947Z,8.88
2023-05-10T22:44:16.403Z,8.83
2023-05-10T22:46:44.398Z,8.79
2023-05-10T22:49:12.518Z,8.75
2023-05-10T22:51:40.426Z,8.73
2023-05-10T22:54:08.774Z,8.69
2023-05-10T22:56:36.798Z,8.64
2023-05-10T22:59:06.969Z,8.58
2023-05-10T23:01:36.603Z,8.51
2023-05-10T23:04:04.614Z,8.50
2023-05-10T23:06:33.095Z,8.45
2023-05-10T23:09:01.113Z,8.43
2023-05-10T23:11:29.149Z,8.41
2023-05-10T23:13:57.138Z,8.41
2023-05-10T23:16:25.265Z,8.40
2023-05-10T23:18:54.859Z,8.38
2023-05-10T23:21:22.963Z,8.37
2023-05-10T23:23:51.401Z,8.35
2023-05-10T23:26:19.475Z,8.35
2023-05-10T23:28:47.456Z,8.36
2023-05-10T23:31:15.648Z,8.39
2023-05-10T23:33:43.582Z,8.41
2023-05-10T23:36:13.027Z,8.42
2023-05-10T23:38:41.119Z,8.46
2023-05-10T23:41:09.122Z,8.49
2023-05-10T23:43:37.274Z,8.53
2023-05-10T23:46:06.474Z,8.52
2023-05-10T23:48:34.462Z,8.49
2023-05-10T23:51:02.420Z,8.44
2023-05-10T23:53:31.962Z,8.36
2023-05-10T23:55:59.987Z,8.42
2023-05-10T23:58:27.988Z,8.43
